Terminal Aerodrome Forecast
Issued by NWS

Home | Current Version | Previous Version | Text Only | Print | Product List | Glossary On
Versions: 1 2 3 4 5 6 7 8 9 10 11 12
481
FTUS44 KLZK 251735
TAFLLQ
TAF
KLLQ 251735Z 2518/2618 VRB05KT P6SM FEW050 SCT150
     FM252100 22007KT P6SM VCSH SCT050 BKN150
     FM260600 33007KT P6SM VCSH BKN050 OVC100 PROB30 2609/2615 6SM
      -TSRA BKN035CB OVC080=

USA.gov is the U.S. government's official web portal to all federal, state and local government web resources and services.